createdAt,value
2023-03-20T00:02:54.127Z,31.92
2023-03-20T00:05:23.506Z,31.35
2023-03-20T00:07:51.275Z,31.13
2023-03-20T00:10:22.554Z,31.55
2023-03-20T00:12:52.156Z,34.83
2023-03-20T00:15:38.375Z,31.10
2023-03-20T00:18:18.719Z,32.47
2023-03-20T00:20:51.019Z,33.13
2023-03-20T00:23:18.629Z,30.08
2023-03-20T00:25:47.230Z,33.50
2023-03-20T00:28:37.678Z,32.60
2023-03-20T00:31:07.034Z,32.92
2023-03-20T00:33:34.306Z,33.65
2023-03-20T00:39:26.369Z,30.38
2023-03-20T00:41:56.297Z,30.58
2023-03-20T00:44:47.850Z,34.28
2023-03-20T00:47:20.822Z,31.63
2023-03-20T00:50:20.885Z,34.63
2023-03-20T00:52:48.546Z,33.80
2023-03-20T00:55:16.021Z,39.40
2023-03-20T00:58:04.225Z,35.03
2023-03-20T01:00:31.454Z,37.50
2023-03-20T01:02:59.096Z,34.63
2023-03-20T01:05:29.156Z,35.80
2023-03-20T01:07:56.611Z,34.03
2023-03-20T01:10:28.306Z,35.83
2023-03-20T01:13:02.914Z,38.90
2023-03-20T01:15:34.948Z,36.15
2023-03-20T01:18:02.282Z,39.70
2023-03-20T01:20:31.027Z,38.60
2023-03-20T01:22:58.302Z,32.05
2023-03-20T01:25:26.176Z,35.47
2023-03-20T01:27:55.235Z,31.65
2023-03-20T01:30:26.436Z,34.20
2023-03-20T01:32:54.073Z,35.72
2023-03-20T01:35:27.493Z,33.83
2023-03-20T01:37:56.626Z,35.28
2023-03-20T01:40:45.579Z,36.38
2023-03-20T01:43:17.314Z,36.45
2023-03-20T01:46:26.104Z,34.90
2023-03-20T01:49:08.662Z,35.00
2023-03-20T01:51:37.847Z,35.25
2023-03-20T01:54:19.172Z,36.45
2023-03-20T01:57:16.861Z,35.15
2023-03-20T01:59:50.804Z,35.45
2023-03-20T02:02:25.888Z,39.13
2023-03-20T02:04:58.570Z,37.45
2023-03-20T02:07:26.259Z,34.97
2023-03-20T02:10:19.839Z,36.92
2023-03-20T02:12:54.120Z,35.08
2023-03-20T02:15:37.516Z,34.95
2023-03-20T02:18:12.755Z,36.53
2023-03-20T02:21:04.306Z,38.05
2023-03-20T02:24:09.927Z,38.60
2023-03-20T02:26:56.608Z,33.92
2023-03-20T02:29:58.274Z,36.63
2023-03-20T02:33:10.348Z,34.75
2023-03-20T02:35:47.514Z,35.33
2023-03-20T02:38:41.049Z,39.72
2023-03-20T02:41:20.441Z,35.30
2023-03-20T02:44:14.174Z,36.05
2023-03-20T02:46:57.661Z,34.35
2023-03-20T02:49:45.538Z,35.47
2023-03-20T02:52:43.930Z,34.60
2023-03-20T02:55:23.986Z,35.90
2023-03-20T02:58:28.797Z,33.15
2023-03-20T03:01:06.294Z,36.00
2023-03-20T03:03:52.196Z,36.10
2023-03-20T03:06:32.847Z,34.80
2023-03-20T03:09:07.738Z,33.67
2023-03-20T03:11:38.524Z,35.00
2023-03-20T03:14:07.317Z,41.40
2023-03-20T03:16:38.056Z,37.38
2023-03-20T03:19:19.623Z,35.63
2023-03-20T03:21:47.985Z,35.22
2023-03-20T03:24:41.842Z,35.38
2023-03-20T03:27:41.534Z,38.53
2023-03-20T03:30:16.874Z,38.13
2023-03-20T03:32:51.281Z,36.13
2023-03-20T03:35:21.342Z,35.03
2023-03-20T03:38:02.736Z,38.67
2023-03-20T03:41:22.628Z,35.08
2023-03-20T03:44:27.210Z,35.72
2023-03-20T03:47:25.591Z,36.33
2023-03-20T03:50:00.992Z,41.45
2023-03-20T03:52:31.693Z,39.65
2023-03-20T03:55:08.667Z,37.25
2023-03-20T03:57:46.195Z,36.40
2023-03-20T04:00:20.772Z,36.40
2023-03-20T04:02:52.560Z,38.00
2023-03-20T04:05:21.461Z,36.72
2023-03-20T04:07:53.356Z,34.72
2023-03-20T04:12:47.781Z,36.75
2023-03-20T04:15:16.762Z,33.33
2023-03-20T04:17:45.097Z,36.15
2023-03-20T04:20:16.264Z,36.47
2023-03-20T04:22:43.578Z,35.22
2023-03-20T04:25:19.670Z,42.67
2023-03-20T04:27:47.028Z,36.30
2023-03-20T04:30:24.897Z,35.35
2023-03-20T04:33:10.916Z,33.38
2023-03-20T04:36:00.954Z,36.25
2023-03-20T04:38:28.116Z,34.85
2023-03-20T04:40:55.981Z,33.38
2023-03-20T04:43:23.863Z,36.88
2023-03-20T04:45:51.649Z,37.17
2023-03-20T04:48:28.216Z,36.25
2023-03-20T04:50:55.444Z,34.72
2023-03-20T04:53:29.143Z,37.67
2023-03-20T04:55:56.220Z,40.03
2023-03-20T04:58:23.742Z,37.08
2023-03-20T05:00:51.193Z,36.85
2023-03-20T05:03:18.205Z,36.70
2023-03-20T05:05:45.483Z,37.78
2023-03-20T05:08:12.964Z,42.75
2023-03-20T05:10:40.885Z,37.40
2023-03-20T05:13:47.745Z,41.55
2023-03-20T05:16:26.803Z,40.47
2023-03-20T05:19:19.017Z,42.50
2023-03-20T05:21:51.680Z,38.30
2023-03-20T05:24:18.770Z,40.05
2023-03-20T05:27:08.705Z,42.10
2023-03-20T05:30:09.761Z,38.05
2023-03-20T05:33:03.066Z,38.10
2023-03-20T05:35:48.409Z,42.63
2023-03-20T05:38:27.311Z,40.40
2023-03-20T05:41:20.466Z,43.10
2023-03-20T05:44:07.771Z,40.63
2023-03-20T05:46:55.348Z,43.65
2023-03-20T05:49:50.680Z,43.75
2023-03-20T05:52:37.987Z,42.88
2023-03-20T05:55:34.434Z,47.05
2023-03-20T05:58:13.048Z,42.20
2023-03-20T06:00:46.346Z,43.38
2023-03-20T06:03:33.653Z,41.85
2023-03-20T06:06:09.897Z,43.33
2023-03-20T06:08:37.528Z,41.70
2023-03-20T06:11:06.758Z,44.85
2023-03-20T06:13:37.802Z,43.53
2023-03-20T06:16:05.902Z,46.38
2023-03-20T06:18:34.043Z,44.08
2023-03-20T06:21:02.799Z,41.33
2023-03-20T06:23:30.605Z,44.78
2023-03-20T06:26:05.019Z,48.03
2023-03-20T06:28:43.831Z,43.63
2023-03-20T06:31:11.309Z,45.08
2023-03-20T06:33:38.758Z,46.33
2023-03-20T06:36:06.132Z,44.97
2023-03-20T06:38:34.112Z,50.10
2023-03-20T06:41:07.176Z,42.22
2023-03-20T06:43:35.241Z,46.88
2023-03-20T06:46:03.784Z,42.10
2023-03-20T06:48:32.551Z,47.50
2023-03-20T06:53:36.992Z,43.45
2023-03-20T06:56:06.901Z,47.08
2023-03-20T06:58:34.066Z,49.83
2023-03-20T07:01:01.358Z,44.53
2023-03-20T07:03:30.469Z,45.30
2023-03-20T07:06:01.499Z,45.58
2023-03-20T07:08:29.465Z,46.92
2023-03-20T07:10:56.542Z,45.33
2023-03-20T07:13:23.996Z,40.88
2023-03-20T07:16:03.682Z,43.47
2023-03-20T07:18:35.548Z,42.45
2023-03-20T07:21:05.264Z,44.70
2023-03-20T07:23:34.648Z,43.35
2023-03-20T07:26:06.345Z,43.47
2023-03-20T07:32:26.351Z,44.33
2023-03-20T07:34:55.052Z,45.38
2023-03-20T07:37:22.221Z,44.22
2023-03-20T07:40:25.473Z,43.28
2023-03-20T07:47:05.468Z,46.15
2023-03-20T07:49:32.995Z,43.53
2023-03-20T07:52:00.700Z,42.47
2023-03-20T07:54:27.906Z,42.72
2023-03-20T07:56:57.945Z,45.25
2023-03-20T07:59:25.461Z,39.65
2023-03-20T08:01:52.523Z,43.00
2023-03-20T08:04:22.729Z,45.95
2023-03-20T08:06:52.202Z,41.25
2023-03-20T08:09:19.549Z,41.03
2023-03-20T08:11:47.356Z,43.58
2023-03-20T08:14:33.435Z,40.55
2023-03-20T08:17:13.616Z,40.35
2023-03-20T08:19:54.583Z,29.33
2023-03-20T08:22:21.868Z,39.45
2023-03-20T08:27:39.255Z,40.83
2023-03-20T08:32:41.376Z,42.78
2023-03-20T08:35:25.754Z,39.75
2023-03-20T08:37:58.107Z,38.08
2023-03-20T08:40:29.583Z,37.85
2023-03-20T08:43:07.476Z,39.45
2023-03-20T08:45:43.948Z,40.53
2023-03-20T08:48:25.010Z,41.58
2023-03-20T08:50:52.378Z,39.80
2023-03-20T08:53:49.750Z,37.45
2023-03-20T08:56:17.598Z,39.17
2023-03-20T08:58:44.876Z,40.05
2023-03-20T09:01:14.224Z,39.72
2023-03-20T09:03:43.244Z,41.72
2023-03-20T09:06:11.336Z,43.28
2023-03-20T09:08:38.839Z,41.42
2023-03-20T09:14:06.379Z,38.85
2023-03-20T09:16:33.947Z,37.42
2023-03-20T09:19:02.182Z,40.45
2023-03-20T09:21:29.183Z,39.30
2023-03-20T09:23:56.265Z,42.42
2023-03-20T09:27:13.942Z,39.25
2023-03-20T09:30:07.336Z,39.50
2023-03-20T09:32:35.518Z,40.25
2023-03-20T09:35:03.589Z,39.30
2023-03-20T09:37:30.751Z,41.00
2023-03-20T09:40:29.133Z,39.78
2023-03-20T09:43:03.260Z,44.33
2023-03-20T09:45:47.929Z,40.13
2023-03-20T09:48:25.556Z,44.90
2023-03-20T09:51:06.091Z,40.50
2023-03-20T09:54:24.398Z,39.50
2023-03-20T09:57:20.420Z,39.95
2023-03-20T09:59:48.665Z,40.38
2023-03-20T10:02:24.583Z,43.50
2023-03-20T10:04:56.067Z,40.03
2023-03-20T10:07:23.517Z,36.60
2023-03-20T10:09:52.520Z,47.42
2023-03-20T10:12:51.672Z,52.88
2023-03-20T10:15:28.180Z,38.40
2023-03-20T10:18:07.575Z,40.65
2023-03-20T10:20:51.478Z,41.42
2023-03-20T10:23:41.450Z,37.92
2023-03-20T10:26:20.959Z,40.65
2023-03-20T10:28:53.768Z,41.97
2023-03-20T10:31:44.492Z,41.70
2023-03-20T10:34:32.523Z,43.95
2023-03-20T10:37:36.014Z,39.78
2023-03-20T10:40:27.267Z,42.38
2023-03-20T10:42:59.198Z,43.03
2023-03-20T10:45:43.312Z,40.92
2023-03-20T10:48:17.406Z,39.47
2023-03-20T10:51:04.022Z,42.55
2023-03-20T10:53:37.829Z,41.80
2023-03-20T10:56:17.194Z,40.97
2023-03-20T10:58:49.301Z,42.83
2023-03-20T11:01:16.541Z,45.22
2023-03-20T11:03:46.701Z,43.88
2023-03-20T11:06:31.887Z,39.85
2023-03-20T11:09:18.773Z,40.42
2023-03-20T11:11:51.943Z,42.15
2023-03-20T11:14:27.135Z,36.58
2023-03-20T11:16:56.152Z,39.67
2023-03-20T11:19:24.815Z,44.50
2023-03-20T11:21:56.175Z,44.42
2023-03-20T11:24:35.105Z,40.90
2023-03-20T11:27:17.090Z,40.72
2023-03-20T11:29:49.178Z,43.10
2023-03-20T11:32:22.380Z,41.67
2023-03-20T11:34:49.767Z,40.25
2023-03-20T11:37:27.125Z,42.35
2023-03-20T11:39:59.213Z,41.58
2023-03-20T11:42:30.550Z,41.55
2023-03-20T11:45:06.310Z,40.65
2023-03-20T11:47:36.134Z,40.67
2023-03-20T11:50:27.641Z,43.65
2023-03-20T11:52:54.907Z,43.80
2023-03-20T11:55:35.998Z,40.30
2023-03-20T11:58:05.937Z,40.53
2023-03-20T12:00:42.438Z,36.13
2023-03-20T12:03:37.338Z,36.60
2023-03-20T12:06:07.209Z,43.85
2023-03-20T12:08:37.243Z,39.03
2023-03-20T12:11:22.061Z,40.83
2023-03-20T12:13:52.055Z,36.65
2023-03-20T12:16:25.317Z,35.53
2023-03-20T12:19:06.593Z,37.40
2023-03-20T12:21:43.392Z,37.83
2023-03-20T12:24:36.722Z,38.92
2023-03-20T12:27:35.702Z,34.50
2023-03-20T12:30:33.271Z,35.90
2023-03-20T12:33:06.919Z,38.65
2023-03-20T12:35:44.783Z,35.45
2023-03-20T12:38:24.824Z,35.08
2023-03-20T12:41:26.488Z,37.08
2023-03-20T12:44:08.656Z,35.53
2023-03-20T12:46:43.851Z,37.65
2023-03-20T12:49:22.076Z,34.00
2023-03-20T12:52:20.453Z,33.45
2023-03-20T12:55:19.351Z,34.22
2023-03-20T12:58:09.328Z,33.90
2023-03-20T13:00:55.263Z,35.30
2023-03-20T13:04:06.297Z,35.13
2023-03-20T13:06:53.551Z,34.78
2023-03-20T13:09:58.472Z,33.22
2023-03-20T13:12:49.405Z,32.40
2023-03-20T13:15:34.662Z,29.40
2023-03-20T13:18:07.318Z,29.67
2023-03-20T13:20:41.406Z,35.35
2023-03-20T13:23:23.135Z,31.88
2023-03-20T13:28:53.590Z,31.77
2023-03-20T13:31:42.992Z,29.42
2023-03-20T13:34:31.857Z,33.38
2023-03-20T13:37:23.856Z,33.35
2023-03-20T13:40:01.226Z,31.85
2023-03-20T13:42:51.981Z,32.90
2023-03-20T13:45:41.835Z,31.00
2023-03-20T13:48:30.024Z,31.50
2023-03-20T13:51:10.512Z,33.17
2023-03-20T13:54:37.112Z,30.00
2023-03-20T13:57:16.907Z,32.67
2023-03-20T14:00:01.321Z,28.17
2023-03-20T14:02:53.337Z,29.17
2023-03-20T14:05:25.962Z,30.10
2023-03-20T14:07:58.070Z,29.95
2023-03-20T14:10:25.060Z,31.33
2023-03-20T14:12:59.969Z,33.10
2023-03-20T14:15:38.633Z,32.83
2023-03-20T14:18:16.542Z,33.88
2023-03-20T14:20:52.935Z,32.67
2023-03-20T14:23:37.421Z,33.58
2023-03-20T14:26:26.162Z,32.70
2023-03-20T14:29:00.136Z,32.50
2023-03-20T14:31:50.791Z,32.00
2023-03-20T14:34:28.048Z,34.13
2023-03-20T14:41:25.522Z,34.17
2023-03-20T14:44:55.314Z,34.42
2023-03-20T14:47:52.728Z,33.60
2023-03-20T14:50:26.242Z,33.05
2023-03-20T14:53:07.987Z,30.67
2023-03-20T14:58:51.889Z,32.47
2023-03-20T15:01:21.885Z,31.58
2023-03-20T15:03:57.645Z,35.15
2023-03-20T15:06:29.686Z,28.63
2023-03-20T15:09:07.106Z,34.83
2023-03-20T15:11:35.224Z,35.45
2023-03-20T15:14:07.333Z,31.88
2023-03-20T15:16:36.669Z,33.20
2023-03-20T15:19:15.599Z,30.50
2023-03-20T15:21:45.398Z,31.88
2023-03-20T15:24:21.614Z,39.53
2023-03-20T15:26:53.023Z,32.60
2023-03-20T15:29:20.767Z,31.85
2023-03-20T15:32:12.429Z,31.90
2023-03-20T15:34:42.610Z,34.85
2023-03-20T15:37:17.830Z,34.65
2023-03-20T15:40:00.687Z,34.53
2023-03-20T15:42:32.075Z,32.92
2023-03-20T15:45:08.202Z,38.08
2023-03-20T15:48:07.088Z,33.38
2023-03-20T15:50:37.562Z,33.50
2023-03-20T15:53:08.247Z,37.10
2023-03-20T15:55:36.838Z,36.00
2023-03-20T15:58:05.346Z,33.70
2023-03-20T16:00:39.987Z,34.28
2023-03-20T16:03:19.318Z,37.65
2023-03-20T16:05:50.075Z,36.13
2023-03-20T16:12:02.203Z,32.90
2023-03-20T16:14:34.922Z,34.70
2023-03-20T16:17:04.120Z,34.20
2023-03-20T16:19:31.584Z,32.50
2023-03-20T16:22:13.451Z,31.63
2023-03-20T16:31:36.536Z,35.47
2023-03-20T16:34:09.653Z,30.65
2023-03-20T16:36:38.525Z,33.95
2023-03-20T16:39:21.709Z,35.88
2023-03-20T16:42:01.269Z,34.88
2023-03-20T16:44:33.668Z,36.47
2023-03-20T16:47:16.837Z,34.50
2023-03-20T16:49:53.778Z,32.40
2023-03-20T16:52:29.668Z,35.80
2023-03-20T16:54:58.782Z,36.28
2023-03-20T16:57:27.385Z,40.72
2023-03-20T17:00:12.740Z,35.85
2023-03-20T17:03:57.237Z,38.70
2023-03-20T17:06:36.079Z,35.25
2023-03-20T17:09:24.310Z,35.03
2023-03-20T17:12:01.437Z,32.97
2023-03-20T17:14:31.933Z,33.72
2023-03-20T17:17:00.470Z,34.50
2023-03-20T17:19:43.148Z,38.95
2023-03-20T17:22:19.181Z,33.17
2023-03-20T17:24:46.805Z,35.90
2023-03-20T17:27:23.280Z,34.10
2023-03-20T17:29:56.744Z,34.45
2023-03-20T17:32:27.238Z,39.28
2023-03-20T17:35:00.262Z,35.35
2023-03-20T17:37:50.298Z,37.33
2023-03-20T17:40:30.395Z,34.47
2023-03-20T17:43:00.996Z,35.90
2023-03-20T17:45:28.426Z,33.70
2023-03-20T17:47:55.760Z,35.45
2023-03-20T17:50:34.246Z,37.85
2023-03-20T17:53:02.496Z,39.30
2023-03-20T17:55:37.160Z,42.42
2023-03-20T17:58:13.969Z,39.92
2023-03-20T18:00:45.248Z,39.90
2023-03-20T18:05:57.462Z,39.95
2023-03-20T18:08:27.980Z,39.55
2023-03-20T18:11:08.982Z,39.70
2023-03-20T18:13:40.611Z,41.23
2023-03-20T18:16:42.112Z,41.28
2023-03-20T18:19:26.932Z,40.53
2023-03-20T18:21:54.195Z,44.67
2023-03-20T18:24:22.696Z,41.83
2023-03-20T18:27:01.703Z,48.33
2023-03-20T18:29:29.015Z,41.40
2023-03-20T18:31:56.148Z,48.15
2023-03-20T18:34:27.734Z,49.97
2023-03-20T18:36:54.972Z,53.67
2023-03-20T18:39:24.914Z,52.53
2023-03-20T18:41:52.517Z,58.22
2023-03-20T18:44:19.946Z,47.00
2023-03-20T18:46:57.133Z,52.10
2023-03-20T18:49:24.482Z,44.92
2023-03-20T18:51:53.321Z,43.63
2023-03-20T18:54:20.341Z,43.45
2023-03-20T18:56:50.136Z,41.97
2023-03-20T18:59:17.718Z,45.35
2023-03-20T19:01:46.390Z,44.78
2023-03-20T19:04:13.775Z,70.65
2023-03-20T19:06:51.326Z,51.25
2023-03-20T19:12:17.347Z,54.47
2023-03-20T19:14:46.699Z,59.92
2023-03-20T19:17:19.933Z,54.88
2023-03-20T19:20:14.752Z,61.05
2023-03-20T19:22:47.585Z,58.28
2023-03-20T19:25:23.396Z,57.60
2023-03-20T19:31:32.184Z,47.50
2023-03-20T19:34:01.644Z,53.13
2023-03-20T19:36:39.769Z,52.95
2023-03-20T19:39:10.975Z,47.25
2023-03-20T19:41:55.060Z,34.28
2023-03-20T19:44:27.329Z,45.38
2023-03-20T19:51:00.041Z,50.47
2023-03-20T19:57:38.567Z,50.90
2023-03-20T20:00:55.684Z,53.75
2023-03-20T20:03:40.474Z,58.00
2023-03-20T20:06:09.888Z,60.38
2023-03-20T21:16:15.614Z,51.95
2023-03-20T21:18:43.483Z,56.65
2023-03-20T21:21:19.486Z,55.25
2023-03-20T21:34:31.699Z,58.67
2023-03-20T21:38:22.924Z,60.08
2023-03-20T21:56:41.896Z,51.33
2023-03-20T22:02:05.859Z,56.70
2023-03-20T22:09:04.707Z,56.20
2023-03-20T22:11:52.275Z,53.40
2023-03-20T22:18:19.196Z,50.85
2023-03-20T22:30:31.337Z,52.03
2023-03-20T22:33:44.642Z,52.13
2023-03-20T22:47:49.942Z,52.83
2023-03-20T22:58:59.069Z,41.38
2023-03-20T23:01:26.999Z,41.13
2023-03-20T23:03:57.830Z,42.08
2023-03-20T23:06:27.407Z,39.08
2023-03-20T23:08:58.376Z,40.38
2023-03-20T23:11:28.616Z,37.85
2023-03-20T23:13:56.549Z,39.88
2023-03-20T23:16:24.331Z,40.95
2023-03-20T23:18:51.717Z,40.75
2023-03-20T23:21:19.312Z,42.80
2023-03-20T23:23:46.445Z,44.30
2023-03-20T23:26:23.300Z,45.30
2023-03-20T23:28:53.659Z,44.20
2023-03-20T23:31:26.154Z,49.92
2023-03-20T23:33:58.351Z,46.75
2023-03-20T23:36:37.322Z,45.72
2023-03-20T23:42:29.196Z,42.80
2023-03-20T23:45:02.146Z,40.65
2023-03-20T23:47:44.493Z,42.35
2023-03-20T23:50:20.545Z,49.33
2023-03-20T23:52:57.151Z,50.30
2023-03-20T23:55:32.644Z,49.42
2023-03-20T23:58:01.300Z,51.50
